Time;durP1;ratioP1;P1;durP2;ratioP2;P2;SDS_P1;SDS_P2;PMS_P1;PMS_P2;Temp;Humidity;BMP_temperature;BMP_pressure;BME280_temperature;BME280_humidity;BME280_pressure;Samples;Min_cycle;Max_cycle;Signal;HPM_P1;HPM_P2
2023/04/06 00:00:45;;;;;;;10.70;7.05;;;;;;;0.76;51.64;101966.44;4983833;28;20684;-69
2023/04/06 00:03:10;;;;;;;13.38;6.68;;;;;;;0.83;51.43;101955.44;4979728;28;20577;-73
2023/04/06 00:05:36;;;;;;;15.75;7.35;;;;;;;0.81;51.66;101961.38;4977882;28;20334;-75
2023/04/06 00:08:01;;;;;;;12.43;6.88;;;;;;;0.87;51.67;101962.38;4979436;28;20132;-74
2023/04/06 00:10:27;;;;;;;13.82;7.28;;;;;;;0.74;51.89;101957.84;4976392;28;21164;-76
2023/04/06 00:12:53;;;;;;;11.43;6.50;;;;;;;0.75;51.73;101948.41;4978753;28;20883;-75
2023/04/06 00:15:19;;;;;;;13.25;6.97;;;;;;;0.67;51.64;101940.56;4971823;28;20041;-73
2023/04/06 00:17:45;;;;;;;10.70;6.32;;;;;;;0.63;51.70;101938.75;4968257;28;20551;-72
2023/04/06 00:20:11;;;;;;;12.25;6.90;;;;;;;0.58;51.59;101936.09;4995418;28;20116;-72
2023/04/06 00:22:36;;;;;;;16.23;7.32;;;;;;;0.57;52.21;101930.91;4967896;28;20570;-73
2023/04/06 00:25:02;;;;;;;11.18;6.93;;;;;;;0.54;51.89;101931.72;4979195;28;20348;-72
2023/04/06 00:27:27;;;;;;;9.35;6.13;;;;;;;0.54;52.32;101923.16;4978215;28;20044;-73
2023/04/06 00:29:53;;;;;;;11.82;5.85;;;;;;;0.53;52.11;101922.31;4978573;28;20129;-73
2023/04/06 00:32:18;;;;;;;15.00;6.85;;;;;;;0.57;52.63;101921.53;4975688;28;20677;-73
2023/04/06 00:34:44;;;;;;;12.80;7.05;;;;;;;0.61;52.54;101920.75;4995108;28;20026;-75
2023/04/06 00:37:19;;;;;;;10.90;6.45;;;;;;;0.55;52.30;101923.19;4981350;28;20050;-71
2023/04/06 00:39:44;;;;;;;11.10;6.18;;;;;;;0.57;52.53;101923.19;4969442;28;20407;-76
2023/04/06 00:42:13;;;;;;;12.68;6.93;;;;;;;0.54;52.40;101913.72;4959020;28;20057;-76
2023/04/06 00:44:40;;;;;;;11.10;5.78;;;;;;;0.54;52.44;101920.59;4979223;28;20140;-75
2023/04/06 00:47:05;;;;;;;10.70;5.85;;;;;;;0.51;52.40;101913.69;4994491;28;20037;-76
2023/04/06 00:49:32;;;;;;;11.93;6.38;;;;;;;0.49;52.69;101916.22;4991785;28;20384;-76
2023/04/06 00:51:58;;;;;;;12.60;6.85;;;;;;;0.48;52.62;101911.06;4994875;28;20034;-74
2023/04/06 00:54:23;;;;;;;9.85;6.03;;;;;;;0.48;52.57;101911.06;4978476;28;20088;-77
2023/04/06 00:56:49;;;;;;;13.25;6.25;;;;;;;0.46;52.45;101907.59;4978853;28;20030;-78
2023/04/06 00:59:15;;;;;;;10.52;5.90;;;;;;;0.43;52.51;101910.09;4980935;28;20167;-78
2023/04/06 01:01:41;;;;;;;8.27;5.53;;;;;;;0.41;52.68;101906.63;4979281;28;20038;-76
2023/04/06 01:04:24;;;;;;;10.77;5.25;;;;;;;0.41;52.84;101906.63;4974575;28;20053;-70
2023/04/06 01:06:52;;;;;;;12.65;5.93;;;;;;;0.47;52.78;101901.59;4977938;28;20070;-71
2023/04/06 01:09:17;;;;;;;10.43;6.22;;;;;;;0.45;52.83;101898.13;4961022;28;20129;-72
2023/04/06 01:11:43;;;;;;;9.95;5.32;;;;;;;0.52;52.65;101894.81;4962822;28;20483;-74
2023/04/06 01:14:14;;;;;;;9.98;5.32;;;;;;;0.53;52.53;101898.28;4961019;28;20125;-76
2023/04/06 01:16:53;;;;;;;7.63;5.55;;;;;;;0.46;52.78;101894.72;4975997;28;20030;-75
2023/04/06 01:19:23;;;;;;;10.70;5.70;;;;;;;0.45;52.63;101898.13;4974484;28;20479;-72
2023/04/06 01:21:53;;;;;;;14.30;6.57;;;;;;;0.53;52.46;101891.44;4975638;28;20061;-72
2023/04/06 01:24:39;;;;;;;10.32;5.65;;;;;;;0.49;52.77;101887.91;4964383;28;20036;-74
2023/04/06 01:27:05;;;;;;;13.98;7.32;;;;;;;0.50;52.61;101881.06;4980564;28;20065;-74
2023/04/06 01:30:06;;;;;;;7.70;5.72;;;;;;;0.50;52.39;101883.63;4978995;28;20029;-71
2023/04/06 01:32:40;;;;;;;14.23;6.60;;;;;;;0.51;52.13;101877.66;4978757;28;20695;-72
2023/04/06 01:35:07;;;;;;;10.25;6.70;;;;;;;0.50;52.38;101870.78;4994663;28;20037;-73
2023/04/06 01:37:37;;;;;;;14.10;7.13;;;;;;;0.48;52.13;101878.50;4966611;28;20056;-73
2023/04/06 01:40:06;;;;;;;12.52;6.63;;;;;;;0.44;52.08;101884.41;4980469;28;20129;-73
2023/04/06 01:42:42;;;;;;;10.98;6.68;;;;;;;0.42;52.33;101872.38;4953922;28;20089;-72
2023/04/06 01:45:10;;;;;;;10.85;5.93;;;;;;;0.44;52.18;101873.25;4952820;28;20415;-72
2023/04/06 01:47:37;;;;;;;11.77;7.05;;;;;;;0.44;52.19;101866.41;4963331;28;20041;-74
2023/04/06 01:50:05;;;;;;;13.15;7.93;;;;;;;0.44;52.28;101870.69;4981108;28;20029;-73
2023/04/06 01:52:35;;;;;;;11.15;7.85;;;;;;;0.40;52.14;101869.75;4995774;28;20075;-74
2023/04/06 01:55:00;;;;;;;14.40;6.97;;;;;;;0.38;52.13;101870.56;4981138;28;20033;-74
2023/04/06 01:57:48;;;;;;;14.77;7.68;;;;;;;0.33;52.03;101867.06;4966476;28;20515;-72
2023/04/06 02:00:25;;;;;;;14.55;7.82;;;;;;;0.24;52.07;101868.59;4964041;28;20405;-73
2023/04/06 02:02:53;;;;;;;13.32;7.05;;;;;;;0.14;52.13;101866.69;4983573;28;20046;-73
2023/04/06 02:05:24;;;;;;;12.45;6.40;;;;;;;0.01;52.32;101870.75;4997378;28;20096;-75
2023/04/06 02:07:52;;;;;;;15.85;6.80;;;;;;;-0.03;52.17;101862.94;4980347;28;20444;-74
2023/04/06 02:10:24;;;;;;;10.65;6.57;;;;;;;0.01;51.85;101855.31;4979263;28;20064;-74
2023/04/06 02:12:50;;;;;;;13.50;8.30;;;;;;;-0.02;52.26;101859.53;4982792;28;20049;-73
2023/04/06 02:15:22;;;;;;;16.33;7.75;;;;;;;0.04;52.58;101855.38;4980723;28;20038;-74
2023/04/06 02:17:47;;;;;;;13.73;8.13;;;;;;;0.10;52.50;101854.63;4980092;28;20675;-73
2023/04/06 02:20:13;;;;;;;14.20;7.70;;;;;;;0.07;52.27;101851.97;4965576;28;20041;-73
2023/04/06 02:22:39;;;;;;;13.13;8.70;;;;;;;0.10;51.99;101854.63;4996343;28;20348;-75
2023/04/06 02:25:04;;;;;;;13.30;7.32;;;;;;;0.12;51.87;101847.78;4977415;28;20154;-73
2023/04/06 02:27:30;;;;;;;13.93;7.32;;;;;;;0.11;51.59;101845.22;4981867;28;20041;-74
2023/04/06 02:29:55;;;;;;;13.80;7.07;;;;;;;-0.04;51.18;101848.34;4982053;28;20461;-73
2023/04/06 02:32:21;;;;;;;12.85;7.05;;;;;;;-0.19;51.33;101851.47;4994060;28;20273;-74
2023/04/06 02:34:47;;;;;;;11.52;6.93;;;;;;;-0.16;51.60;101852.41;4986275;28;20042;-74
2023/04/06 02:37:15;;;;;;;14.00;7.22;;;;;;;-0.25;51.20;101852.22;4978019;28;20061;-73
2023/04/06 02:39:41;;;;;;;12.00;6.63;;;;;;;-0.29;51.37;101845.28;4984232;28;20550;-73
2023/04/06 02:42:08;;;;;;;17.42;8.73;;;;;;;-0.29;51.39;101850.41;4994995;28;20109;-73
2023/04/06 02:44:34;;;;;;;16.25;8.60;;;;;;;-0.26;51.50;101844.47;4972347;28;20091;-75
2023/04/06 02:46:59;;;;;;;15.82;7.55;;;;;;;-0.25;51.48;101843.66;4996699;28;20026;-73
2023/04/06 02:49:25;;;;;;;13.90;7.45;;;;;;;-0.25;51.30;101849.66;4983119;28;20026;-71
2023/04/06 02:51:55;;;;;;;16.88;8.52;;;;;;;-0.34;51.48;101836.63;4980321;28;20147;-69
2023/04/06 02:54:33;;;;;;;14.77;7.88;;;;;;;-0.35;51.61;101830.63;4995543;28;20107;-74
2023/04/06 02:57:00;;;;;;;13.98;7.75;;;;;;;-0.43;51.60;101837.28;4997910;28;20380;-72
2023/04/06 02:59:34;;;;;;;14.30;7.60;;;;;;;-0.32;51.78;101834.94;4974485;28;20329;-73
2023/04/06 03:02:15;;;;;;;13.30;7.10;;;;;;;-0.26;51.39;101827.38;4989552;28;20042;-71
2023/04/06 03:04:42;;;;;;;13.25;7.82;;;;;;;-0.42;51.72;101830.44;4981744;28;20034;-72
2023/04/06 03:07:18;;;;;;;18.90;9.15;;;;;;;-0.42;52.40;101828.72;4959652;28;20030;-74
2023/04/06 03:09:43;;;;;;;20.48;9.95;;;;;;;-0.40;52.47;101831.34;4979751;28;20388;-72
2023/04/06 03:12:09;;;;;;;16.02;9.48;;;;;;;-0.27;53.28;101824.78;4971866;28;20044;-72
2023/04/06 03:14:45;;;;;;;15.80;8.10;;;;;;;-0.21;53.09;101818.03;4978757;28;20473;-73
2023/04/06 03:17:11;;;;;;;19.42;9.70;;;;;;;-0.23;53.35;101830.00;4977490;28;20164;-74
2023/04/06 03:19:37;;;;;;;17.70;10.55;;;;;;;-0.17;53.51;101824.97;4979089;28;20740;-75
2023/04/06 03:22:03;;;;;;;18.40;9.43;;;;;;;-0.15;53.41;101823.31;4981016;28;20049;-74
2023/04/06 03:24:29;;;;;;;20.35;10.35;;;;;;;-0.11;53.44;101821.66;4970749;28;20061;-74
2023/04/06 03:26:54;;;;;;;21.88;9.48;;;;;;;-0.09;53.14;101812.28;4983027;28;20081;-74
2023/04/06 03:29:20;;;;;;;18.30;9.55;;;;;;;-0.05;53.12;101820.91;4981299;28;21087;-74
2023/04/06 03:31:46;;;;;;;19.25;9.75;;;;;;;-0.07;53.31;101814.88;4967243;28;20410;-73
2023/04/06 03:34:29;;;;;;;33.13;10.63;;;;;;;-0.00;53.30;101819.28;4966164;28;20041;-74
2023/04/06 03:36:54;;;;;;;20.10;10.13;;;;;;;-0.02;53.42;101810.69;4965158;28;20033;-74
2023/04/06 03:39:20;;;;;;;18.58;10.57;;;;;;;-0.08;53.29;101808.00;4992514;28;20116;-76
2023/04/06 03:41:45;;;;;;;19.90;10.23;;;;;;;-0.07;53.35;101809.75;4978593;28;20519;-70
2023/04/06 03:44:31;;;;;;;17.92;10.45;;;;;;;-0.11;53.41;101807.94;4978805;28;20838;-70
2023/04/06 03:46:57;;;;;;;16.33;9.60;;;;;;;-0.10;53.27;101807.97;4974991;28;20044;-69
2023/04/06 03:49:23;;;;;;;18.80;8.50;;;;;;;-0.14;53.41;101814.75;4971297;28;20057;-75
2023/04/06 03:51:50;;;;;;;19.85;8.95;;;;;;;-0.15;53.49;101809.56;4965410;28;20575;-76
2023/04/06 03:54:15;;;;;;;20.98;11.18;;;;;;;-0.17;53.63;101809.56;4964254;28;20053;-75
2023/04/06 03:56:41;;;;;;;19.48;10.57;;;;;;;-0.16;53.21;101811.28;4982042;28;20037;-77
2023/04/06 03:59:07;;;;;;;21.50;10.75;;;;;;;-0.22;53.34;101806.03;4980388;28;20542;-73
2023/04/06 04:01:32;;;;;;;17.90;10.55;;;;;;;-0.24;53.64;101801.69;4995593;28;20069;-74
2023/04/06 04:03:58;;;;;;;18.85;10.05;;;;;;;-0.29;53.61;101806.75;4997082;28;20124;-76
2023/04/06 04:06:23;;;;;;;22.15;11.82;;;;;;;-0.36;53.75;101802.31;4959131;28;20091;-71
2023/04/06 04:08:49;;;;;;;19.00;10.02;;;;;;;-0.35;53.77;101801.47;4981094;28;20147;-71
2023/04/06 04:11:15;;;;;;;18.35;10.25;;;;;;;-0.30;53.64;101802.44;4979367;28;20041;-71
2023/04/06 04:13:41;;;;;;;17.83;10.82;;;;;;;-0.45;53.93;101799.56;4995023;28;20132;-72
2023/04/06 04:16:08;;;;;;;26.60;10.23;;;;;;;-0.39;53.61;101802.28;4978014;28;20038;-70
2023/04/06 04:18:34;;;;;;;18.63;10.82;;;;;;;-0.39;53.73;101797.13;4970889;28;20045;-69
2023/04/06 04:21:00;;;;;;;19.58;10.55;;;;;;;-0.42;53.88;101803.06;4980971;28;20109;-69
2023/04/06 04:23:26;;;;;;;21.83;10.25;;;;;;;-0.46;53.63;101806.41;4973367;28;20045;-69
2023/04/06 04:25:51;;;;;;;22.67;11.05;;;;;;;-0.37;53.66;101806.59;4980765;28;20081;-69
2023/04/06 04:28:17;;;;;;;21.52;10.70;;;;;;;-0.39;53.96;101804.84;4972729;28;20036;-70
2023/04/06 04:30:44;;;;;;;22.85;12.02;;;;;;;-0.34;53.49;101795.50;4996331;28;20034;-70
2023/04/06 04:33:11;;;;;;;20.50;11.27;;;;;;;-0.52;53.65;101800.28;4956902;28;20533;-69
2023/04/06 04:35:37;;;;;;;22.05;12.27;;;;;;;-0.44;53.63;101797.00;4993867;28;20057;-71
2023/04/06 04:38:03;;;;;;;23.05;11.30;;;;;;;-0.54;53.87;101804.53;4982142;28;20231;-69
2023/04/06 04:40:31;;;;;;;23.83;11.77;;;;;;;-0.53;54.16;101801.09;4974576;28;20037;-70
2023/04/06 04:43:05;;;;;;;23.25;12.13;;;;;;;-0.53;53.88;101803.66;4965317;28;20422;-72
2023/04/06 04:45:33;;;;;;;25.50;13.52;;;;;;;-0.43;53.67;101800.47;4975724;28;20141;-71
2023/04/06 04:48:08;;;;;;;20.08;11.65;;;;;;;-0.45;53.77;101797.00;4977116;28;20539;-73
2023/04/06 04:50:45;;;;;;;25.17;13.32;;;;;;;-0.44;53.91;101798.72;4971881;28;20116;-73
2023/04/06 04:53:13;;;;;;;26.40;12.00;;;;;;;-0.44;53.49;101802.16;4978764;28;20037;-72
2023/04/06 04:55:40;;;;;;;25.50;12.95;;;;;;;-0.49;53.74;101805.47;4961420;28;20540;-72
2023/04/06 04:58:08;;;;;;;21.67;12.57;;;;;;;-0.53;53.98;101801.97;4981442;28;20170;-75
2023/04/06 05:00:49;;;;;;;;;;;;;;;-0.33;53.85;101798.94;4981514;28;20139;-71
2023/04/06 05:03:26;;;;;;;25.55;12.27;;;;;;;-0.31;53.41;101799.84;4976963;28;19925;-72
2023/04/06 05:06:01;;;;;;;23.15;12.75;;;;;;;-0.38;53.43;101798.84;4995515;28;20034;-71
2023/04/06 05:08:31;;;;;;;27.25;13.43;;;;;;;-0.33;53.44;101801.50;4978425;28;20427;-68
2023/04/06 05:10:57;;;;;;;26.35;13.82;;;;;;;-0.29;53.11;101796.47;4982357;28;20049;-69
2023/04/06 05:13:23;;;;;;;25.52;13.13;;;;;;;-0.23;53.01;101801.72;4999657;28;20038;-79
2023/04/06 05:15:51;;;;;;;24.45;12.98;;;;;;;-0.17;52.93;101804.44;4984900;28;20037;-76
2023/04/06 05:18:26;;;;;;;23.75;12.95;;;;;;;-0.11;52.92;101797.66;4964567;28;20053;-73
2023/04/06 05:20:52;;;;;;;32.35;13.70;;;;;;;-0.04;52.82;101800.38;4998333;28;20026;-73
2023/04/06 05:23:21;;;;;;;25.15;12.57;;;;;;;-0.02;52.60;101797.84;4995699;28;20065;-73
2023/04/06 05:25:48;;;;;;;22.88;13.18;;;;;;;0.05;52.26;101799.69;4979143;28;20464;-73
2023/04/06 05:28:19;;;;;;;21.48;12.73;;;;;;;0.14;52.02;101797.28;4981714;28;20084;-74
2023/04/06 05:30:45;;;;;;;28.38;13.88;;;;;;;0.19;52.41;101798.25;4983654;28;20132;-71
2023/04/06 05:33:12;;;;;;;22.73;13.52;;;;;;;0.23;52.19;101797.47;4986518;28;20189;-70
2023/04/06 05:35:54;;;;;;;23.08;12.77;;;;;;;0.32;51.71;101791.59;4989134;28;20034;-72
2023/04/06 05:38:19;;;;;;;25.05;14.48;;;;;;;0.35;51.63;101793.38;4970374;28;21134;-76
2023/04/06 05:40:45;;;;;;;28.73;14.48;;;;;;;0.43;51.49;101796.91;4999607;28;20560;-75
2023/04/06 05:43:14;;;;;;;26.60;13.73;;;;;;;0.45;51.18;101790.09;4982253;28;20030;-73
2023/04/06 05:45:45;;;;;;;22.13;12.60;;;;;;;0.70;50.99;101786.22;4970640;28;20038;-75
2023/04/06 05:48:11;;;;;;;25.02;14.00;;;;;;;1.55;50.19;101784.84;4984236;28;20495;-71
2023/04/06 05:50:36;;;;;;;27.77;13.10;;;;;;;2.32;48.09;101779.66;4980324;28;20069;-72
2023/04/06 05:53:02;;;;;;;25.50;13.10;;;;;;;2.45;45.74;101782.34;4965437;28;20409;-72
2023/04/06 05:55:34;;;;;;;22.65;12.77;;;;;;;2.71;44.85;101780.84;4983918;28;20972;-69
2023/04/06 05:58:11;;;;;;;23.95;12.65;;;;;;;3.41;44.39;101779.53;4984453;28;20125;-69
2023/04/06 06:00:36;;;;;;;21.35;12.40;;;;;;;4.43;41.51;101778.91;4980161;28;20045;-70
2023/04/06 06:03:05;;;;;;;20.23;10.93;;;;;;;5.63;37.21;101776.06;4966084;28;20038;-69
2023/04/06 06:05:32;;;;;;;17.10;10.73;;;;;;;6.59;36.42;101778.03;4984116;28;20091;-70
2023/04/06 06:08:04;;;;;;;18.33;10.70;;;;;;;7.52;33.82;101770.97;4979160;28;20600;-71
2023/04/06 06:10:30;;;;;;;17.92;10.45;;;;;;;8.19;32.86;101765.72;4980993;28;20129;-73
2023/04/06 06:12:56;;;;;;;14.20;9.30;;;;;;;7.98;31.26;101765.16;4960162;28;20580;-71
2023/04/06 06:15:22;;;;;;;16.33;10.25;;;;;;;8.82;30.71;101759.47;4970434;28;20765;-70
2023/04/06 06:17:47;;;;;;;16.27;9.77;;;;;;;9.35;30.88;101755.78;4979916;28;20046;-70
2023/04/06 06:20:14;;;;;;;17.02;9.43;;;;;;;10.17;27.90;101754.88;4983891;28;20038;-71
2023/04/06 06:22:41;;;;;;;14.77;8.32;;;;;;;10.24;28.64;101752.09;4985392;28;20034;-70
2023/04/06 06:25:13;;;;;;;14.13;9.98;;;;;;;10.68;28.01;101752.72;4979887;28;20037;-70
2023/04/06 06:27:38;;;;;;;13.38;8.93;;;;;;;10.54;27.59;101751.31;4980917;28;20125;-71
2023/04/06 06:30:05;;;;;;;14.35;9.35;;;;;;;10.43;27.41;101753.34;4978038;28;20069;-72
2023/04/06 06:32:32;;;;;;;14.95;9.18;;;;;;;11.20;25.35;101743.47;4978570;28;20038;-70
2023/04/06 06:34:59;;;;;;;15.23;9.45;;;;;;;11.73;25.18;101741.00;4979989;28;20034;-70
2023/04/06 06:37:24;;;;;;;11.15;8.75;;;;;;;11.81;25.43;101738.19;4976277;28;20077;-71
2023/04/06 06:39:50;;;;;;;13.07;8.57;;;;;;;11.44;25.40;101740.13;4961199;28;20045;-70
2023/04/06 06:42:17;;;;;;;9.38;8.35;;;;;;;11.45;25.39;101747.06;4979080;28;20109;-71
2023/04/06 06:44:56;;;;;;;13.43;8.07;;;;;;;12.07;23.95;101747.84;4980024;28;20684;-72
2023/04/06 06:47:30;;;;;;;8.85;7.25;;;;;;;12.18;23.88;101742.22;4961811;28;20033;-70
2023/04/06 06:49:55;;;;;;;11.65;8.05;;;;;;;12.46;23.47;101750.03;4979281;28;20034;-71
2023/04/06 06:52:22;;;;;;;15.68;8.52;;;;;;;12.41;24.14;101751.94;4954617;28;20044;-72
2023/04/06 06:54:48;;;;;;;13.57;7.97;;;;;;;12.52;23.52;101739.34;4978614;28;20064;-71
2023/04/06 06:57:17;;;;;;;19.33;9.40;;;;;;;11.43;24.81;101738.41;4979783;28;20045;-70
2023/04/06 06:59:43;;;;;;;14.02;7.38;;;;;;;11.42;24.54;101736.69;4972187;28;20034;-70
2023/04/06 07:02:09;;;;;;;12.73;8.70;;;;;;;10.81;24.76;101743.63;4982961;28;20041;-71
2023/04/06 07:04:35;;;;;;;11.02;7.35;;;;;;;10.62;24.80;101735.44;4979612;28;20038;-71
2023/04/06 07:07:03;;;;;;;10.32;7.28;;;;;;;10.70;25.12;101743.06;4996589;28;20661;-70
2023/04/06 07:09:29;;;;;;;10.82;7.47;;;;;;;11.49;23.90;101736.53;4968770;28;20073;-77
2023/04/06 07:11:56;;;;;;;7.70;6.70;;;;;;;11.53;23.64;101743.34;4975416;28;20124;-70
2023/04/06 07:14:22;;;;;;;9.48;7.05;;;;;;;11.18;24.60;101740.03;4996117;28;20029;-71
2023/04/06 07:16:49;;;;;;;18.38;10.13;;;;;;;11.74;23.80;101732.25;4993655;28;20049;-70
2023/04/06 07:19:15;;;;;;;9.35;6.05;;;;;;;11.61;23.40;101746.63;4979784;28;20538;-71
2023/04/06 07:21:41;;;;;;;11.52;6.60;;;;;;;11.74;23.62;101736.63;4980470;28;20048;-70
2023/04/06 07:24:07;;;;;;;9.35;6.68;;;;;;;12.07;23.41;101739.97;4977858;28;20890;-70
2023/04/06 07:26:33;;;;;;;10.88;6.53;;;;;;;11.63;23.83;101736.94;4987704;28;20136;-71
2023/04/06 07:28:58;;;;;;;13.82;7.43;;;;;;;13.29;21.55;101728.72;4977864;28;20048;-70
2023/04/06 07:31:25;;;;;;;12.25;7.18;;;;;;;13.17;21.78;101732.66;4975626;28;20785;-72
2023/04/06 07:33:51;;;;;;;6.85;5.88;;;;;;;13.22;21.56;101729.84;4980453;28;20574;-71
2023/04/06 07:36:18;;;;;;;13.73;6.18;;;;;;;13.20;21.71;101726.44;4978102;28;20036;-70
2023/04/06 07:38:45;;;;;;;10.07;6.10;;;;;;;13.72;21.72;101729.72;4977822;28;20289;-70
2023/04/06 07:41:11;;;;;;;8.95;6.03;;;;;;;13.85;21.10;101727.44;4979269;28;20092;-72
2023/04/06 07:43:38;;;;;;;9.65;6.30;;;;;;;14.59;20.10;101730.53;4979520;28;20049;-70
2023/04/06 07:46:04;;;;;;;11.07;5.50;;;;;;;13.85;21.23;101728.31;4996255;28;20190;-70
2023/04/06 07:48:29;;;;;;;8.27;6.95;;;;;;;13.77;21.45;101717.25;4959024;28;20379;-72
2023/04/06 07:51:06;;;;;;;12.75;6.53;;;;;;;14.27;20.47;101716.91;4997216;28;20032;-70
2023/04/06 07:53:35;;;;;;;7.43;6.18;;;;;;;14.56;20.84;101713.06;4992324;28;20045;-72
2023/04/06 07:56:00;;;;;;;5.78;5.10;;;;;;;14.39;20.76;101720.81;4983008;28;20198;-70
2023/04/06 07:58:26;;;;;;;6.90;5.10;;;;;;;14.46;20.79;101708.31;4979357;28;20049;-67
2023/04/06 08:00:51;;;;;;;10.35;6.45;;;;;;;13.69;21.75;101711.44;4995116;28;20107;-70
2023/04/06 08:03:17;;;;;;;5.68;5.07;;;;;;;14.51;20.53;101708.94;4977056;28;20100;-71
2023/04/06 08:05:42;;;;;;;8.80;5.05;;;;;;;14.02;20.67;101703.97;4978042;28;20030;-70
2023/04/06 08:08:08;;;;;;;7.35;5.47;;;;;;;13.81;21.07;101704.81;4978536;28;20030;-71
2023/04/06 08:10:36;;;;;;;5.18;4.38;;;;;;;14.70;21.30;101704.59;4992979;28;22954;-69
2023/04/06 08:13:02;;;;;;;6.60;5.20;;;;;;;14.89;19.79;101709.03;4992928;28;20567;-68
2023/04/06 08:15:28;;;;;;;10.38;5.50;;;;;;;14.51;20.07;101706.31;4993749;28;20034;-69
2023/04/06 08:17:53;;;;;;;7.25;4.70;;;;;;;13.40;21.01;101710.78;4979884;28;20566;-70
2023/04/06 08:20:18;;;;;;;6.93;5.30;;;;;;;13.76;21.06;101710.25;4977711;28;20067;-72
2023/04/06 08:22:44;;;;;;;9.38;5.80;;;;;;;14.62;20.41;101700.59;4975964;28;20404;-72
2023/04/06 08:25:12;;;;;;;7.65;6.00;;;;;;;14.68;19.52;101709.06;4962256;28;20073;-72
2023/04/06 08:27:38;;;;;;;6.22;4.65;;;;;;;14.07;19.98;101707.25;4967211;28;20033;-72
2023/04/06 08:30:04;;;;;;;8.23;5.03;;;;;;;13.64;21.22;101708.16;4975514;28;20517;-70
2023/04/06 08:32:29;;;;;;;5.97;5.28;;;;;;;14.15;21.04;101702.53;4987936;28;20046;-71
2023/04/06 08:34:55;;;;;;;8.35;4.43;;;;;;;14.62;20.08;101703.22;4991905;28;20325;-68
2023/04/06 08:37:21;;;;;;;6.57;4.78;;;;;;;14.58;20.02;101697.22;4975492;28;20662;-72
2023/04/06 08:39:47;;;;;;;6.00;4.45;;;;;;;14.06;19.77;101696.81;4976504;28;20056;-70
2023/04/06 08:42:19;;;;;;;9.40;4.47;;;;;;;13.63;20.71;101696.78;4977516;28;20045;-69
2023/04/06 08:44:47;;;;;;;7.57;4.65;;;;;;;13.92;20.45;101687.72;4976677;28;20049;-70
2023/04/06 08:47:12;;;;;;;5.75;4.78;;;;;;;13.35;21.48;101696.13;4970402;28;20057;-70
2023/04/06 08:49:38;;;;;;;5.05;3.83;;;;;;;13.13;21.86;101693.47;4964704;28;20026;-71
2023/04/06 08:52:08;;;;;;;8.10;4.07;;;;;;;13.80;20.34;101688.22;4972657;28;20410;-69
2023/04/06 08:54:34;;;;;;;5.65;4.07;;;;;;;12.29;21.72;101685.94;4944230;28;20033;-70
2023/04/06 08:57:01;;;;;;;7.97;4.70;;;;;;;12.62;22.02;101680.38;4977460;28;20034;-70
2023/04/06 08:59:27;;;;;;;7.15;4.95;;;;;;;12.51;21.91;101687.78;4958770;28;20177;-70
2023/04/06 09:01:55;;;;;;;6.75;4.20;;;;;;;12.59;22.15;101677.88;4978288;28;20068;-70
2023/04/06 09:04:24;;;;;;;12.77;4.72;;;;;;;11.70;23.25;101680.00;4975948;28;20037;-70
2023/04/06 09:06:50;;;;;;;7.57;4.43;;;;;;;11.16;23.20;101682.50;4988983;28;20104;-72
2023/04/06 09:09:16;;;;;;;5.68;3.80;;;;;;;11.21;23.27;101688.44;4977573;28;20482;-72
2023/04/06 09:11:47;;;;;;;6.55;4.43;;;;;;;11.14;22.93;101676.47;4973555;28;20034;-69
2023/04/06 09:14:13;;;;;;;7.90;5.00;;;;;;;11.44;23.19;101684.28;4972979;28;20045;-71
2023/04/06 09:16:45;;;;;;;6.55;3.70;;;;;;;11.29;22.84;101682.16;4966597;28;20033;-69
2023/04/06 09:19:12;;;;;;;8.10;4.47;;;;;;;10.41;23.14;101681.97;4974112;28;20038;-70
2023/04/06 09:21:39;;;;;;;7.57;4.35;;;;;;;10.08;23.44;101689.78;4972879;28;20038;-69
2023/04/06 09:24:07;;;;;;;5.22;3.55;;;;;;;10.64;22.62;101682.22;4978864;28;20034;-71
2023/04/06 09:26:33;;;;;;;6.10;4.55;;;;;;;10.80;22.16;101673.94;4994566;28;20597;-70
2023/04/06 09:29:00;;;;;;;12.55;5.35;;;;;;;10.67;23.49;101680.41;4975310;28;20042;-71
2023/04/06 09:31:34;;;;;;;7.88;4.55;;;;;;;11.07;22.63;101663.63;4976885;28;20050;-70
2023/04/06 09:34:00;;;;;;;9.80;4.53;;;;;;;10.67;22.80;101683.03;4976761;28;20054;-71
2023/04/06 09:36:31;;;;;;;9.02;4.28;;;;;;;11.07;23.33;101679.31;4973448;28;21728;-71
2023/04/06 09:39:04;;;;;;;7.82;4.22;;;;;;;10.89;23.21;101676.31;4966865;28;20049;-73
2023/04/06 09:41:31;;;;;;;8.88;4.70;;;;;;;11.08;22.82;101673.16;4976838;28;20098;-72
2023/04/06 09:44:05;;;;;;;5.88;4.13;;;;;;;11.35;22.94;101654.03;4994773;28;20034;-69
2023/04/06 09:46:33;;;;;;;5.25;4.32;;;;;;;11.57;22.29;101669.06;4994032;28;20092;-71
2023/04/06 09:49:03;;;;;;;6.38;4.97;;;;;;;11.30;22.33;101662.91;4994595;28;20171;-71
2023/04/06 09:51:31;;;;;;;9.65;4.82;;;;;;;11.11;22.43;101662.63;4978826;28;20034;-70
2023/04/06 09:54:02;;;;;;;8.07;4.70;;;;;;;10.94;22.68;101661.34;4978450;28;20041;-70
2023/04/06 09:56:33;;;;;;;7.38;4.68;;;;;;;11.45;23.29;101652.84;4979377;28;20042;-69
2023/04/06 09:59:05;;;;;;;5.72;4.35;;;;;;;11.83;22.34;101653.41;4980096;28;20947;-71
2023/04/06 10:01:33;;;;;;;5.68;4.30;;;;;;;11.27;22.71;101642.94;4977504;28;20486;-70
2023/04/06 10:04:13;;;;;;;8.88;4.47;;;;;;;11.43;22.84;101648.56;4981777;28;20038;-70
2023/04/06 10:06:39;;;;;;;6.35;4.60;;;;;;;11.09;22.80;101640.91;4980701;28;20240;-70
2023/04/06 10:09:07;;;;;;;8.65;5.25;;;;;;;11.42;22.44;101641.63;4984425;28;20038;-70
2023/04/06 10:11:34;;;;;;;6.80;4.25;;;;;;;11.18;22.13;101638.00;4980694;28;20075;-70
2023/04/06 10:14:00;;;;;;;5.65;4.65;;;;;;;11.62;23.37;101633.09;4981461;28;20065;-71
2023/04/06 10:16:27;;;;;;;9.52;5.30;;;;;;;11.96;22.65;101638.13;4981037;28;20573;-70
2023/04/06 10:18:59;;;;;;;6.35;4.50;;;;;;;11.77;21.75;101631.75;4982154;28;20041;-70
2023/04/06 10:21:27;;;;;;;9.20;5.07;;;;;;;11.95;21.32;101630.31;4977608;28;20536;-70
2023/04/06 10:23:58;;;;;;;8.05;5.88;;;;;;;12.56;21.22;101633.44;4981145;28;21524;-71
2023/04/06 10:26:24;;;;;;;10.82;5.78;;;;;;;12.28;21.50;101637.00;4996218;28;20046;-69
2023/04/06 10:28:50;;;;;;;6.55;4.95;;;;;;;12.12;21.17;101627.13;4982002;28;20546;-70
2023/04/06 10:31:27;;;;;;;10.73;5.82;;;;;;;11.78;21.76;101634.38;4982305;28;20034;-70
2023/04/06 10:34:05;;;;;;;6.15;5.18;;;;;;;13.02;21.17;101631.72;4995979;28;20487;-70
2023/04/06 10:36:34;;;;;;;9.95;5.25;;;;;;;13.07;20.45;101624.56;4977899;28;20128;-71
2023/04/06 10:39:02;;;;;;;7.50;4.93;;;;;;;13.78;20.66;101632.25;4979725;28;20137;-71
2023/04/06 10:41:54;;;;;;;9.85;5.50;;;;;;;13.58;19.83;101624.31;4981440;28;20521;-71
2023/04/06 10:44:23;;;;;;;8.30;5.78;;;;;;;12.69;19.10;101628.59;4981152;28;20049;-71
2023/04/06 10:46:54;;;;;;;7.05;5.55;;;;;;;12.63;19.83;101624.41;4979590;28;20308;-71
2023/04/06 10:49:20;;;;;;;11.63;5.30;;;;;;;12.56;20.25;101617.69;4983304;28;20034;-69
2023/04/06 10:51:53;;;;;;;7.78;6.07;;;;;;;12.21;20.96;101622.41;4980535;28;20324;-73
2023/04/06 10:54:20;;;;;;;8.98;5.10;;;;;;;13.10;19.79;101613.94;4999686;28;20045;-71
2023/04/06 10:56:46;;;;;;;8.43;5.07;;;;;;;12.80;19.78;101612.47;4981789;28;20042;-72
2023/04/06 10:59:11;;;;;;;7.72;5.55;;;;;;;13.83;18.77;101611.91;4987265;28;20274;-70
2023/04/06 11:01:37;;;;;;;8.07;5.03;;;;;;;13.61;18.08;101609.31;4982164;28;20040;-71
2023/04/06 11:04:03;;;;;;;9.98;5.35;;;;;;;13.91;19.29;101607.16;4982902;28;20041;-69
2023/04/06 11:06:31;;;;;;;10.02;5.28;;;;;;;12.84;19.66;101611.44;4975449;28;20033;-70
2023/04/06 11:08:57;;;;;;;7.53;5.13;;;;;;;13.31;19.29;101606.97;4978916;28;20087;-70
2023/04/06 11:11:26;;;;;;;6.07;4.88;;;;;;;13.20;19.41;101606.53;4997588;28;20041;-69
2023/04/06 11:13:56;;;;;;;10.45;5.78;;;;;;;12.37;19.59;101609.63;4981938;28;20033;-72
2023/04/06 11:16:34;;;;;;;9.75;5.18;;;;;;;11.16;21.37;101601.41;4995812;28;20056;-72
2023/04/06 11:19:10;;;;;;;7.85;5.25;;;;;;;12.73;18.70;101603.13;4982441;28;20124;-72
2023/04/06 11:21:43;;;;;;;10.70;4.22;;;;;;;13.25;18.20;101601.09;4981767;28;20087;-71
2023/04/06 11:24:13;;;;;;;7.47;4.65;;;;;;;13.16;19.54;101604.97;4982626;28;20523;-73
2023/04/06 11:26:38;;;;;;;6.45;5.30;;;;;;;12.68;19.98;101603.25;4980296;28;20034;-72